DAL1873 TNCM-KATL
Flight info
| Callsign | DAL1873 |
|---|---|
| Flight time | N/A |
| Altitude | 36000 |
| Route | DCT ILIDO/M079F360 L451 JAINS/N0457F360 Y436 DEDDY DCT HOTHH JJEDI4 |
| Aircraft | A321/M-V/N |
Departure
| Time | 2026-05-05 20:49 |
|---|---|
| Airport | Princess Juliana International Airport (TNCM) |
Arrival
| Time | N/A |
|---|---|
| Airport | Hartsfield Jackson Atlanta International Airport (KATL) |
| Time | Latitude | Longitude | Altitude | Speed | Heading |
|---|---|---|---|---|---|
| 2026-05-05 20:40 | 18.04313 | -63.11431 | 29 ft | 0 kts | 349° |
| 2026-05-05 20:41 | 18.04298 | -63.11428 | 29 ft | 3 kts | 349° |
| 2026-05-05 20:42 | 18.04280 | -63.11424 | 29 ft | 3 kts | 349° |
| 2026-05-05 20:42 | 18.04262 | -63.11420 | 29 ft | 3 kts | 349° |
| 2026-05-05 20:42 | 18.04243 | -63.11417 | 29 ft | 3 kts | 349° |
| 2026-05-05 20:42 | 18.04225 | -63.11413 | 29 ft | 3 kts | 349° |
| 2026-05-05 20:43 | 18.04223 | -63.11413 | 29 ft | 0 kts | 349° |
| 2026-05-05 20:45 | 18.04225 | -63.11413 | 29 ft | 2 kts | 349° |
| 2026-05-05 20:45 | 18.04239 | -63.11431 | 29 ft | 4 kts | 282° |
| 2026-05-05 20:45 | 18.04232 | -63.11456 | 29 ft | 3 kts | 244° |
| 2026-05-05 20:46 | 18.04221 | -63.11476 | 28 ft | 3 kts | 239° |
| 2026-05-05 20:46 | 18.04204 | -63.11502 | 28 ft | 6 kts | 232° |
| 2026-05-05 20:46 | 18.04170 | -63.11543 | 28 ft | 8 kts | 229° |
| 2026-05-05 20:46 | 18.04131 | -63.11593 | 28 ft | 9 kts | 232° |
| 2026-05-05 20:47 | 18.04088 | -63.11649 | 28 ft | 10 kts | 232° |
| 2026-05-05 20:47 | 18.04060 | -63.11721 | 28 ft | 11 kts | 259° |
| 2026-05-05 20:47 | 18.04047 | -63.11804 | 27 ft | 11 kts | 261° |
| 2026-05-05 20:47 | 18.04035 | -63.11884 | 28 ft | 11 kts | 255° |
| 2026-05-05 20:48 | 18.03994 | -63.11950 | 28 ft | 9 kts | 227° |
| 2026-05-05 20:48 | 18.03945 | -63.11942 | 27 ft | 10 kts | 109° |
| 2026-05-05 20:48 | 18.03947 | -63.11912 | 27 ft | 0 kts | 82° |
| 2026-05-05 20:48 | 18.03950 | -63.11892 | 27 ft | 10 kts | 82° |
| 2026-05-05 20:49 | 18.04001 | -63.11525 | 28 ft | 94 kts | 82° |
| 2026-05-05 20:49 | 18.04132 | -63.10603 | 33 ft | 160 kts | 80° |
| 2026-05-05 20:49 | 18.04332 | -63.09356 | 616 ft | 169 kts | 84° |
| 2026-05-05 20:49 | 18.04203 | -63.08234 | 1655 ft | 155 kts | 116° |
| 2026-05-05 20:50 | 18.03446 | -63.07391 | 2348 ft | 164 kts | 139° |
| 2026-05-05 20:50 | 18.02558 | -63.06460 | 2498 ft | 206 kts | 131° |
| 2026-05-05 20:50 | 18.01434 | -63.05478 | 3544 ft | 203 kts | 153° |
| 2026-05-05 20:50 | 18.00073 | -63.05189 | 4723 ft | 207 kts | 187° |
| 2026-05-05 20:51 | 17.98762 | -63.05835 | 5324 ft | 216 kts | 219° |
| 2026-05-05 20:51 | 17.97790 | -63.07102 | 5662 ft | 231 kts | 236° |
| 2026-05-05 20:51 | 17.96886 | -63.08552 | 5958 ft | 245 kts | 234° |
| 2026-05-05 20:51 | 17.95909 | -63.10105 | 6172 ft | 265 kts | 235° |
| 2026-05-05 20:52 | 17.94856 | -63.11789 | 6363 ft | 287 kts | 235° |
| 2026-05-05 20:52 | 17.93713 | -63.13598 | 6506 ft | 306 kts | 234° |
| 2026-05-05 20:52 | 17.92608 | -63.15497 | 7179 ft | 305 kts | 242° |
| 2026-05-05 20:52 | 17.92032 | -63.17610 | 8047 ft | 299 kts | 264° |
| 2026-05-05 20:53 | 17.92251 | -63.19756 | 8777 ft | 298 kts | 292° |
| 2026-05-05 20:53 | 17.93470 | -63.21493 | 9402 ft | 299 kts | 324° |
| 2026-05-05 20:53 | 17.95323 | -63.22471 | 10016 ft | 300 kts | 338° |
| 2026-05-05 20:53 | 17.97291 | -63.23297 | 10309 ft | 314 kts | 338° |
| 2026-05-05 20:54 | 17.99387 | -63.24174 | 10443 ft | 333 kts | 338° |
| 2026-05-05 20:54 | 18.01578 | -63.25130 | 10636 ft | 347 kts | 332° |
| 2026-05-05 20:54 | 18.03497 | -63.26678 | 11059 ft | 352 kts | 314° |
| 2026-05-05 20:54 | 18.05226 | -63.28520 | 11585 ft | 355 kts | 316° |
| 2026-05-05 20:55 | 18.07043 | -63.30282 | 12132 ft | 358 kts | 318° |
| 2026-05-05 20:55 | 18.08924 | -63.32020 | 12679 ft | 360 kts | 319° |
| 2026-05-05 20:55 | 18.10817 | -63.33752 | 13219 ft | 363 kts | 319° |
| 2026-05-05 20:55 | 18.12717 | -63.35507 | 13752 ft | 365 kts | 318° |
| 2026-05-05 20:56 | 18.14619 | -63.37292 | 14241 ft | 367 kts | 318° |
| 2026-05-05 20:56 | 18.16520 | -63.39098 | 14774 ft | 368 kts | 317° |
| 2026-05-05 20:56 | 18.18407 | -63.40906 | 15366 ft | 366 kts | 317° |
| 2026-05-05 20:56 | 18.20286 | -63.42720 | 15921 ft | 367 kts | 317° |
| 2026-05-05 20:57 | 18.22168 | -63.44541 | 16432 ft | 368 kts | 317° |
| 2026-05-05 20:57 | 18.24069 | -63.46377 | 16931 ft | 371 kts | 317° |
| 2026-05-05 20:57 | 18.25976 | -63.48214 | 17441 ft | 372 kts | 317° |
| 2026-05-05 20:57 | 18.27891 | -63.50056 | 17943 ft | 374 kts | 317° |
| 2026-05-05 20:58 | 18.29788 | -63.51882 | 18425 ft | 375 kts | 317° |
| 2026-05-05 20:58 | 18.31740 | -63.53763 | 18842 ft | 378 kts | 317° |
| 2026-05-05 20:58 | 18.33686 | -63.55634 | 19208 ft | 381 kts | 317° |
| 2026-05-05 20:58 | 18.35650 | -63.57520 | 19558 ft | 384 kts | 317° |
| 2026-05-05 20:59 | 18.37641 | -63.59433 | 19913 ft | 387 kts | 317° |
| 2026-05-05 20:59 | 18.39635 | -63.61353 | 20265 ft | 390 kts | 316° |
| 2026-05-05 20:59 | 18.41638 | -63.63289 | 20612 ft | 393 kts | 316° |
| 2026-05-05 20:59 | 18.43658 | -63.65241 | 20935 ft | 396 kts | 316° |
| 2026-05-05 21:00 | 18.45696 | -63.67211 | 21256 ft | 399 kts | 316° |
| 2026-05-05 21:00 | 18.47762 | -63.69202 | 21559 ft | 403 kts | 316° |
| 2026-05-05 21:00 | 18.49837 | -63.71200 | 21893 ft | 406 kts | 315° |
| 2026-05-05 21:00 | 18.51928 | -63.73215 | 22201 ft | 409 kts | 315° |
| 2026-05-05 21:01 | 18.54033 | -63.75245 | 22530 ft | 411 kts | 315° |
| 2026-05-05 21:01 | 18.56145 | -63.77285 | 22809 ft | 414 kts | 315° |
| 2026-05-05 21:01 | 18.58281 | -63.79346 | 23088 ft | 418 kts | 316° |
| 2026-05-05 21:01 | 18.60428 | -63.81424 | 23376 ft | 421 kts | 315° |
| 2026-05-05 21:02 | 18.62590 | -63.83516 | 23651 ft | 423 kts | 315° |
| 2026-05-05 21:02 | 18.64767 | -63.85623 | 23888 ft | 426 kts | 315° |
| 2026-05-05 21:02 | 18.66952 | -63.87735 | 24141 ft | 428 kts | 315° |
| 2026-05-05 21:02 | 18.69152 | -63.89864 | 24400 ft | 429 kts | 315° |
| 2026-05-05 21:03 | 18.71356 | -63.92003 | 24650 ft | 431 kts | 315° |
| 2026-05-05 21:03 | 18.73566 | -63.94147 | 24928 ft | 433 kts | 315° |
| 2026-05-05 21:03 | 18.75788 | -63.96298 | 25192 ft | 434 kts | 315° |
| 2026-05-05 21:03 | 18.77987 | -63.98427 | 25453 ft | 436 kts | 315° |
| 2026-05-05 21:04 | 18.80224 | -64.00594 | 25713 ft | 437 kts | 315° |
| 2026-05-05 21:04 | 18.82468 | -64.02773 | 25966 ft | 439 kts | 315° |
| 2026-05-05 21:04 | 18.84721 | -64.04962 | 26220 ft | 441 kts | 315° |
| 2026-05-05 21:04 | 18.86982 | -64.07161 | 26529 ft | 441 kts | 315° |
| 2026-05-05 21:05 | 18.89243 | -64.09360 | 26797 ft | 442 kts | 315° |
| 2026-05-05 21:05 | 18.91507 | -64.11561 | 27050 ft | 444 kts | 315° |
| 2026-05-05 21:05 | 18.93784 | -64.13777 | 27301 ft | 445 kts | 315° |
| 2026-05-05 21:05 | 18.96073 | -64.16000 | 27556 ft | 447 kts | 315° |
| 2026-05-05 21:06 | 18.98359 | -64.18223 | 27807 ft | 449 kts | 315° |
| 2026-05-05 21:06 | 19.00663 | -64.20468 | 28045 ft | 451 kts | 315° |
| 2026-05-05 21:06 | 19.02975 | -64.22718 | 28280 ft | 452 kts | 315° |
| 2026-05-05 21:06 | 19.05292 | -64.24977 | 28517 ft | 454 kts | 315° |
| 2026-05-05 21:07 | 19.07615 | -64.27245 | 28754 ft | 456 kts | 315° |
| 2026-05-05 21:07 | 19.09947 | -64.29521 | 28982 ft | 457 kts | 315° |
| 2026-05-05 21:07 | 19.12290 | -64.31809 | 29202 ft | 459 kts | 315° |
| 2026-05-05 21:07 | 19.14639 | -64.34100 | 29415 ft | 460 kts | 315° |
| 2026-05-05 21:08 | 19.17002 | -64.36405 | 29641 ft | 462 kts | 315° |
| 2026-05-05 21:08 | 19.19332 | -64.38682 | 29869 ft | 463 kts | 315° |
| 2026-05-05 21:08 | 19.21733 | -64.41025 | 30093 ft | 464 kts | 315° |
| 2026-05-05 21:08 | 19.24112 | -64.43344 | 30287 ft | 466 kts | 315° |
| 2026-05-05 21:09 | 19.26466 | -64.45643 | 30474 ft | 467 kts | 315° |
| 2026-05-05 21:09 | 19.28855 | -64.47981 | 30691 ft | 468 kts | 315° |
| 2026-05-05 21:09 | 19.31237 | -64.50311 | 31002 ft | 466 kts | 315° |
| 2026-05-05 21:09 | 19.33612 | -64.52635 | 31324 ft | 464 kts | 314° |
| 2026-05-05 21:10 | 19.35978 | -64.54952 | 31646 ft | 462 kts | 314° |
| 2026-05-05 21:10 | 19.38332 | -64.57259 | 31975 ft | 460 kts | 314° |
| 2026-05-05 21:10 | 19.40687 | -64.59569 | 32287 ft | 459 kts | 314° |
| 2026-05-05 21:10 | 19.43017 | -64.61859 | 32617 ft | 457 kts | 314° |
| 2026-05-05 21:11 | 19.45345 | -64.64148 | 32953 ft | 455 kts | 314° |
| 2026-05-05 21:11 | 19.47662 | -64.66425 | 33287 ft | 454 kts | 314° |
| 2026-05-05 21:11 | 19.49974 | -64.68693 | 33622 ft | 452 kts | 314° |
| 2026-05-05 21:11 | 19.52276 | -64.70952 | 33953 ft | 450 kts | 314° |
| 2026-05-05 21:12 | 19.54566 | -64.73198 | 34246 ft | 448 kts | 314° |
| 2026-05-05 21:12 | 19.56859 | -64.75447 | 34511 ft | 447 kts | 314° |
| 2026-05-05 21:12 | 19.59137 | -64.77686 | 34782 ft | 446 kts | 313° |
| 2026-05-05 21:12 | 19.61407 | -64.79919 | 35037 ft | 445 kts | 313° |
| 2026-05-05 21:13 | 19.63674 | -64.82146 | 35277 ft | 444 kts | 313° |
| 2026-05-05 21:13 | 19.65935 | -64.84372 | 35519 ft | 443 kts | 313° |
| 2026-05-05 21:13 | 19.68193 | -64.86602 | 35753 ft | 442 kts | 313° |
| 2026-05-05 21:13 | 19.70443 | -64.88830 | 35983 ft | 442 kts | 313° |
| 2026-05-05 21:14 | 19.74899 | -64.93233 | 36084 ft | 439 kts | 313° |
| 2026-05-05 21:14 | 19.79361 | -64.97627 | 36091 ft | 437 kts | 313° |
| 2026-05-05 21:15 | 19.83814 | -65.02021 | 36086 ft | 437 kts | 313° |
| 2026-05-05 21:15 | 19.88293 | -65.06451 | 36084 ft | 437 kts | 313° |
| 2026-05-05 21:16 | 19.92714 | -65.10830 | 36086 ft | 437 kts | 313° |
| 2026-05-05 21:16 | 19.97168 | -65.15237 | 36102 ft | 437 kts | 313° |
| 2026-05-05 21:17 | 20.01613 | -65.19644 | 36098 ft | 437 kts | 313° |
| 2026-05-05 21:17 | 20.05309 | -65.23310 | 36096 ft | 437 kts | 312° |
| 2026-05-05 21:18 | 20.09757 | -65.27723 | 36090 ft | 437 kts | 313° |
| 2026-05-05 21:18 | 20.14203 | -65.32132 | 36098 ft | 437 kts | 312° |
| 2026-05-05 21:19 | 20.18654 | -65.36546 | 36096 ft | 437 kts | 312° |
| 2026-05-05 21:19 | 20.23092 | -65.40962 | 36094 ft | 437 kts | 312° |
| 2026-05-05 21:20 | 20.27527 | -65.45382 | 36091 ft | 437 kts | 312° |
| 2026-05-05 21:20 | 20.31959 | -65.49810 | 36102 ft | 437 kts | 311° |
| 2026-05-05 21:21 | 20.36394 | -65.54235 | 36101 ft | 437 kts | 312° |
| 2026-05-05 21:21 | 20.40834 | -65.58660 | 36096 ft | 436 kts | 312° |
| 2026-05-05 21:22 | 20.45268 | -65.63084 | 36103 ft | 436 kts | 311° |
| 2026-05-05 21:22 | 20.49664 | -65.67485 | 36098 ft | 436 kts | 311° |
| 2026-05-05 21:23 | 20.54085 | -65.71916 | 36094 ft | 436 kts | 311° |
| 2026-05-05 21:23 | 20.58539 | -65.76370 | 36089 ft | 436 kts | 311° |
| 2026-05-05 21:24 | 20.62934 | -65.80765 | 36098 ft | 436 kts | 311° |